Turnov, Czech Republic
Current Conditions -  °F | °C
As of 12:00 PM on Saturday 22 Nov 2014 (Local Time) from LKKB Reporting Station
Overcast Overcast  
Wind Chill: 35°   Ceiling: 2300
Heat Index: 39°   Visibility: 6mi
Dew Point: 32°   Wind: 6mph
Humidity: 75%   Direction: 170°S
Pressure: 30.27"   Gusts: NA
Location:  50.6°N, 15.14°E
Report Text: LKKB 221000Z 17005KT 140V220 9999 OVC023 04/00 Q1025 NOSIG
Loading
Personal Weather Stations






























Interactive Weather Map New forecast layout! Learn more

10-Day Weather Forecast

Advertisements
Track Severe Weather on mobile